Time;durP1;ratioP1;P1;durP2;ratioP2;P2;SDS_P1;SDS_P2;PMS_P1;PMS_P2;Temp;Humidity;BMP_temperature;BMP_pressure;BME280_temperature;BME280_humidity;BME280_pressure;Samples;Min_cycle;Max_cycle;Signal;HPM_P1;HPM_P2
2023/02/05 00:02:11;;;;;;;3.22;1.98;;;;;;;-2.20;61.29;94989.88;5066268;28;20078;-80
2023/02/05 00:04:37;;;;;;;6.72;2.20;;;;;;;-2.20;61.23;94992.56;5068437;28;20032;-78
2023/02/05 00:07:04;;;;;;;3.30;2.22;;;;;;;-2.16;61.54;94995.34;5065099;28;20036;-80
2023/02/05 00:09:30;;;;;;;2.33;1.77;;;;;;;-2.16;61.31;95000.72;5066344;28;20116;-80
2023/02/05 00:11:56;;;;;;;3.38;2.45;;;;;;;-2.11;61.28;94996.97;5065753;28;20113;-79
2023/02/05 00:14:22;;;;;;;2.80;1.85;;;;;;;-2.16;61.41;95001.50;5065618;28;20058;-78
2023/02/05 00:16:47;;;;;;;3.10;2.00;;;;;;;-2.27;61.56;95003.19;5066019;28;20032;-78
2023/02/05 00:19:14;;;;;;;3.63;2.03;;;;;;;-2.47;62.20;95002.38;5064045;28;20055;-78
2023/02/05 00:21:40;;;;;;;3.25;1.95;;;;;;;-2.47;62.04;94991.59;5066156;28;20045;-78
2023/02/05 00:24:05;;;;;;;2.67;2.37;;;;;;;-2.57;62.59;95012.94;5047672;28;20040;-77
2023/02/05 00:26:31;;;;;;;2.70;2.10;;;;;;;-2.61;62.18;95003.97;5066530;28;20032;-77
2023/02/05 00:28:56;;;;;;;3.93;2.03;;;;;;;-2.72;62.52;95009.13;5065711;28;20025;-78
2023/02/05 00:31:22;;;;;;;3.07;2.03;;;;;;;-2.73;62.91;95007.56;5066918;28;20453;-79
2023/02/05 00:33:49;;;;;;;2.00;1.50;;;;;;;-2.76;62.97;95002.88;5067606;28;20025;-78
2023/02/05 00:36:15;;;;;;;3.50;2.00;;;;;;;-2.81;63.36;94995.06;5068341;28;20029;-79
2023/02/05 00:38:41;;;;;;;2.83;1.60;;;;;;;-2.86;62.88;95016.88;5066143;28;20060;-79
2023/02/05 00:41:08;;;;;;;5.00;2.63;;;;;;;-2.83;62.94;95014.25;5064494;28;20105;-78
2023/02/05 00:43:33;;;;;;;3.10;2.20;;;;;;;-2.83;62.63;95010.78;5049793;28;20574;-79
2023/02/05 00:45:59;;;;;;;3.57;2.10;;;;;;;-2.81;62.39;95019.28;5063860;28;20101;-77
2023/02/05 00:48:24;;;;;;;5.73;2.30;;;;;;;-2.73;62.31;95027.19;5066967;28;20060;-78
2023/02/05 00:50:51;;;;;;;6.03;2.33;;;;;;;-2.62;62.20;94999.72;5065044;28;20347;-79
2023/02/05 00:53:18;;;;;;;3.47;2.13;;;;;;;-2.66;61.87;95029.25;5065246;28;20036;-78
2023/02/05 00:55:43;;;;;;;3.37;2.03;;;;;;;-2.67;61.62;95030.38;5065038;28;20044;-78
2023/02/05 00:58:08;;;;;;;2.27;1.70;;;;;;;-2.60;61.64;95019.78;5065198;28;20382;-78
2023/02/05 01:00:34;;;;;;;3.67;2.53;;;;;;;-2.62;60.77;95030.13;5067146;28;20445;-77
2023/02/05 01:03:00;;;;;;;3.17;2.20;;;;;;;-2.69;61.47;95029.97;5047020;28;20233;-79
2023/02/05 01:05:26;;;;;;;4.97;1.93;;;;;;;-2.66;61.39;95026.56;5065704;28;20446;-77
2023/02/05 01:07:52;;;;;;;2.87;1.73;;;;;;;-2.60;61.03;95038.63;5064134;28;20458;-78
2023/02/05 01:10:18;;;;;;;3.30;2.30;;;;;;;-2.55;60.70;95029.50;5065892;28;20036;-79
2023/02/05 01:12:44;;;;;;;4.23;2.40;;;;;;;-2.53;60.95;95033.38;5066354;28;20496;-77
2023/02/05 01:15:12;;;;;;;3.10;1.83;;;;;;;-2.57;60.66;95043.31;5064977;28;20603;-78
2023/02/05 01:17:37;;;;;;;2.87;2.03;;;;;;;-2.72;61.38;95039.50;5065037;28;20109;-77
2023/02/05 01:20:04;;;;;;;2.87;2.40;;;;;;;-2.77;61.32;95039.00;5062883;28;20117;-78
2023/02/05 01:22:30;;;;;;;4.00;2.33;;;;;;;-2.70;61.42;95034.53;5047317;28;20052;-78
2023/02/05 01:24:56;;;;;;;3.10;2.17;;;;;;;-2.79;60.96;95031.28;5064460;28;20474;-78
2023/02/05 01:27:21;;;;;;;5.10;2.40;;;;;;;-2.81;61.49;95040.81;5066273;28;20063;-76
2023/02/05 01:29:46;;;;;;;4.40;2.30;;;;;;;-2.88;61.87;95046.03;5065275;28;20522;-81
2023/02/05 01:32:12;;;;;;;3.17;2.20;;;;;;;-2.84;61.83;95050.38;5068941;28;20432;-78
2023/02/05 01:34:37;;;;;;;3.07;2.47;;;;;;;-2.81;61.60;95038.13;5065538;28;20437;-79
2023/02/05 01:37:03;;;;;;;4.00;2.40;;;;;;;-2.77;61.28;95047.84;5046806;28;20024;-77
2023/02/05 01:39:28;;;;;;;3.03;2.35;;;;;;;-2.70;61.75;95052.59;5066308;28;20016;-78
2023/02/05 01:41:54;;;;;;;4.53;2.40;;;;;;;-2.73;61.47;95050.63;5064430;28;20058;-77
2023/02/05 01:44:23;;;;;;;5.23;2.67;;;;;;;-2.68;61.69;95056.53;5048112;28;20032;-78
2023/02/05 01:46:50;;;;;;;3.83;2.37;;;;;;;-2.73;61.40;95062.16;5063045;28;20502;-79
2023/02/05 01:49:26;;;;;;;3.30;2.30;;;;;;;-2.80;61.56;95056.63;5064008;28;20032;-78
2023/02/05 01:51:53;;;;;;;3.60;2.40;;;;;;;-2.86;61.61;95057.25;5063855;28;20039;-77
2023/02/05 01:54:19;;;;;;;3.07;2.20;;;;;;;-2.93;61.72;95052.44;5064519;28;20055;-78
2023/02/05 01:56:49;;;;;;;3.40;2.43;;;;;;;-2.94;60.99;95064.34;5064605;28;20407;-77
2023/02/05 01:59:21;;;;;;;4.83;2.43;;;;;;;-3.02;60.95;95055.31;5062326;28;20081;-78
2023/02/05 02:01:46;;;;;;;3.47;2.50;;;;;;;-2.94;61.00;95064.34;5066193;28;20033;-78
2023/02/05 02:04:14;;;;;;;2.83;1.97;;;;;;;-2.84;60.28;95068.41;5046137;28;20451;-77
2023/02/05 02:06:40;;;;;;;2.63;2.17;;;;;;;-2.87;60.28;95083.34;5047138;28;20028;-79
2023/02/05 02:09:06;;;;;;;3.22;2.17;;;;;;;-2.91;60.46;95074.41;5064977;28;20024;-78
2023/02/05 02:11:37;;;;;;;2.90;2.27;;;;;;;-2.93;61.03;95087.41;5063186;28;20024;-78
2023/02/05 02:14:05;;;;;;;3.60;2.57;;;;;;;-2.93;60.77;95082.03;5063638;28;20451;-77
2023/02/05 02:16:32;;;;;;;5.35;2.40;;;;;;;-2.88;61.04;95081.78;5045635;28;20032;-79
2023/02/05 02:18:58;;;;;;;4.43;2.30;;;;;;;-2.89;60.50;95079.44;5063954;28;20039;-79
2023/02/05 02:21:54;;;;;;;4.57;2.93;;;;;;;-3.05;60.65;95084.81;5062448;28;20040;-77
2023/02/05 02:24:50;;;;;;;4.53;2.33;;;;;;;-3.03;61.28;95091.41;5068132;28;20204;-78
2023/02/05 02:27:15;;;;;;;3.57;2.40;;;;;;;-3.07;61.56;95079.78;5070109;28;20025;-77
2023/02/05 02:29:48;;;;;;;2.87;2.33;;;;;;;-3.06;62.01;95080.56;5064944;28;20078;-79
2023/02/05 02:32:19;;;;;;;3.97;2.40;;;;;;;-3.07;62.83;95077.09;5048468;28;20040;-77
2023/02/05 02:34:48;;;;;;;3.13;2.33;;;;;;;-3.30;63.03;95082.28;5051108;28;20526;-77
2023/02/05 02:37:39;;;;;;;3.13;2.10;;;;;;;-3.22;63.64;95088.59;5067670;28;20020;-78
2023/02/05 02:40:10;;;;;;;4.97;2.70;;;;;;;-3.19;63.42;95095.22;5067794;28;20116;-77
2023/02/05 02:42:43;;;;;;;4.83;3.00;;;;;;;-3.26;63.96;95091.22;5066506;28;20043;-78
2023/02/05 02:45:10;;;;;;;3.13;2.53;;;;;;;-3.21;64.61;95095.56;5051486;28;20448;-78
2023/02/05 02:47:39;;;;;;;3.60;2.70;;;;;;;-3.25;64.07;95097.38;5067235;28;20112;-79
2023/02/05 02:50:13;;;;;;;7.90;2.60;;;;;;;-3.40;64.01;95087.34;5067117;28;20036;-77
2023/02/05 02:52:40;;;;;;;3.90;2.35;;;;;;;-3.38;64.29;95099.34;5067670;28;20036;-77
2023/02/05 02:55:08;;;;;;;4.43;2.40;;;;;;;-3.39;64.21;95102.34;5067606;28;20039;-78
2023/02/05 02:57:35;;;;;;;6.53;3.03;;;;;;;-3.37;63.54;95102.81;5068162;28;20071;-78
2023/02/05 03:00:03;;;;;;;3.07;2.10;;;;;;;-3.31;63.44;95098.75;5065766;28;20490;-78
2023/02/05 03:02:31;;;;;;;3.13;2.20;;;;;;;-3.36;63.93;95093.63;5069520;28;20024;-79
2023/02/05 03:05:03;;;;;;;6.20;2.63;;;;;;;-3.40;63.98;95100.81;5066450;28;20373;-78
2023/02/05 03:07:35;;;;;;;3.80;2.30;;;;;;;-3.46;64.34;95105.63;5066833;28;20112;-77
2023/02/05 03:10:07;;;;;;;4.40;2.63;;;;;;;-3.44;64.34;95108.78;5067202;28;20419;-79
2023/02/05 03:12:32;;;;;;;3.70;2.60;;;;;;;-3.51;65.54;95106.66;5067358;28;20021;-79
2023/02/05 03:14:58;;;;;;;3.50;2.33;;;;;;;-3.42;65.05;95109.22;5067290;28;20033;-78
2023/02/05 03:17:24;;;;;;;3.73;2.80;;;;;;;-3.37;64.99;95114.34;5065636;28;20082;-78
2023/02/05 03:19:57;;;;;;;3.20;2.60;;;;;;;-3.36;64.84;95115.91;5050644;28;20103;-78
2023/02/05 03:22:22;;;;;;;3.67;2.67;;;;;;;-3.32;64.92;95116.00;5066366;28;20050;-78
2023/02/05 03:24:49;;;;;;;5.03;2.50;;;;;;;-3.29;64.65;95118.00;5073284;28;20556;-77
2023/02/05 03:27:14;;;;;;;4.03;2.33;;;;;;;-3.29;64.56;95120.69;5067351;28;20024;-77
2023/02/05 03:29:43;;;;;;;3.63;2.43;;;;;;;-3.29;64.46;95126.84;5066408;28;20059;-78
2023/02/05 03:32:30;;;;;;;6.07;2.33;;;;;;;-3.26;64.14;95122.69;5067558;28;20438;-77
2023/02/05 03:35:32;;;;;;;3.53;2.63;;;;;;;-3.26;64.31;95122.69;5067056;28;20445;-77
2023/02/05 03:38:13;;;;;;;3.47;2.37;;;;;;;-3.36;64.03;95121.28;5067093;28;20106;-77
2023/02/05 03:40:56;;;;;;;4.30;2.10;;;;;;;-3.34;64.09;95115.56;5067210;28;20036;-78
2023/02/05 03:43:24;;;;;;;4.75;2.55;;;;;;;-3.45;64.04;95127.91;5066550;28;20032;-79
2023/02/05 03:46:02;;;;;;;3.00;2.00;;;;;;;-3.42;64.48;95127.25;5067325;28;20565;-78
2023/02/05 03:48:37;;;;;;;3.80;2.73;;;;;;;-3.44;64.14;95129.47;5066200;28;20083;-77
2023/02/05 03:51:30;;;;;;;3.60;2.60;;;;;;;-3.64;64.42;95123.19;5066602;28;20029;-78
2023/02/05 03:54:19;;;;;;;4.05;2.25;;;;;;;-3.69;64.53;95128.81;5068626;28;20067;-78
2023/02/05 03:56:59;;;;;;;3.37;2.10;;;;;;;-3.74;64.52;95127.91;5067396;28;20085;-79
2023/02/05 03:59:26;;;;;;;4.23;2.77;;;;;;;-3.75;64.63;95136.31;5065953;28;20024;-77
2023/02/05 04:01:51;;;;;;;3.93;1.90;;;;;;;-3.70;64.26;95132.63;5049567;28;20487;-77
2023/02/05 04:04:17;;;;;;;5.40;2.30;;;;;;;-3.69;63.70;95134.94;5064950;28;20032;-78
2023/02/05 04:06:45;;;;;;;3.97;2.00;;;;;;;-3.64;63.50;95142.78;5066804;28;20024;-77
2023/02/05 04:09:10;;;;;;;5.20;2.20;;;;;;;-3.58;63.36;95143.31;5064508;28;20456;-77
2023/02/05 04:11:37;;;;;;;5.27;2.70;;;;;;;-3.55;63.32;95146.13;5068248;28;20040;-78
2023/02/05 04:14:02;;;;;;;3.37;2.50;;;;;;;-3.61;63.15;95139.41;5065046;28;20449;-78
2023/02/05 04:16:28;;;;;;;2.87;2.20;;;;;;;-3.58;63.29;95144.09;5067211;28;20028;-78
2023/02/05 04:18:53;;;;;;;4.50;2.00;;;;;;;-3.59;62.94;95147.13;5067721;28;20035;-77
2023/02/05 04:21:19;;;;;;;4.50;2.60;;;;;;;-3.63;62.67;95154.31;5070886;28;20473;-78
2023/02/05 04:23:44;;;;;;;3.50;2.30;;;;;;;-3.60;63.33;95154.41;5067475;28;20029;-78
2023/02/05 04:26:09;;;;;;;3.47;2.60;;;;;;;-3.59;63.20;95141.75;5066258;28;20050;-78
2023/02/05 04:28:35;;;;;;;3.23;2.30;;;;;;;-3.68;63.12;95152.63;5067936;28;20043;-78
2023/02/05 04:31:00;;;;;;;3.40;2.10;;;;;;;-3.77;63.41;95144.72;5065909;28;20052;-77
2023/02/05 04:33:26;;;;;;;3.77;2.13;;;;;;;-3.78;64.08;95153.91;5065850;28;20032;-78
2023/02/05 04:35:51;;;;;;;4.13;2.10;;;;;;;-3.72;64.38;95159.84;5065378;28;20047;-78
2023/02/05 04:38:17;;;;;;;4.40;2.50;;;;;;;-3.69;63.91;95158.34;5065393;28;20466;-77
2023/02/05 04:40:42;;;;;;;6.10;2.43;;;;;;;-3.70;64.82;95154.09;5066739;28;20033;-76
2023/02/05 04:43:07;;;;;;;3.53;2.50;;;;;;;-3.72;64.42;95162.53;5064057;28;20499;-79
2023/02/05 04:45:34;;;;;;;4.07;2.70;;;;;;;-3.82;64.69;95158.38;5067288;28;20025;-78
2023/02/05 04:48:01;;;;;;;4.80;2.30;;;;;;;-3.97;65.38;95155.63;5063799;28;20032;-78
2023/02/05 04:50:26;;;;;;;4.17;2.43;;;;;;;-3.90;65.70;95163.88;5067171;28;20024;-79
2023/02/05 04:52:51;;;;;;;5.40;2.60;;;;;;;-3.83;65.57;95154.16;5065256;28;20048;-79
2023/02/05 04:55:17;;;;;;;4.40;2.47;;;;;;;-3.90;66.05;95161.19;5067863;28;20070;-76
2023/02/05 04:57:42;;;;;;;3.40;2.67;;;;;;;-3.93;65.82;95172.63;5065246;28;20028;-77
2023/02/05 05:00:08;;;;;;;4.43;2.40;;;;;;;-4.04;65.90;95181.13;5048356;28;20043;-77
2023/02/05 05:02:34;;;;;;;3.57;2.40;;;;;;;-4.11;67.13;95174.78;5065456;28;20025;-79
2023/02/05 05:04:59;;;;;;;3.40;2.03;;;;;;;-4.05;66.55;95182.25;5066020;28;20147;-77
2023/02/05 05:07:25;;;;;;;4.50;2.57;;;;;;;-3.96;66.94;95186.72;5066697;28;20074;-77
2023/02/05 05:09:50;;;;;;;3.47;2.37;;;;;;;-3.95;66.58;95189.09;5063584;28;20032;-78
2023/02/05 05:12:16;;;;;;;5.20;2.37;;;;;;;-3.92;66.28;95195.69;5064817;28;20025;-79
2023/02/05 05:14:41;;;;;;;3.73;2.70;;;;;;;-3.98;66.94;95191.66;5063912;28;20024;-78
2023/02/05 05:17:06;;;;;;;4.57;2.67;;;;;;;-4.00;68.12;95197.38;5069631;28;20028;-79
2023/02/05 05:19:32;;;;;;;4.83;2.60;;;;;;;-3.99;66.99;95192.78;5066287;28;20146;-79
2023/02/05 05:21:58;;;;;;;4.70;3.00;;;;;;;-4.01;67.17;95193.13;5065540;28;20426;-79
2023/02/05 05:24:23;;;;;;;4.53;2.50;;;;;;;-4.03;67.90;95201.50;5065235;28;20059;-79
2023/02/05 05:26:48;;;;;;;4.03;2.97;;;;;;;-3.95;67.50;95204.44;5065533;28;20056;-78
2023/02/05 05:29:14;;;;;;;4.40;2.17;;;;;;;-3.98;66.84;95195.13;5065248;28;20056;-78
2023/02/05 05:31:40;;;;;;;5.27;2.60;;;;;;;-3.91;67.33;95202.59;5064949;28;20082;-78
2023/02/05 05:34:06;;;;;;;3.30;2.30;;;;;;;-3.92;66.57;95201.06;5064262;28;20418;-78
2023/02/05 05:36:31;;;;;;;4.53;2.53;;;;;;;-3.82;67.80;95214.03;5063956;28;20039;-78
2023/02/05 05:43:45;;;;;;;4.23;2.53;;;;;;;-3.75;67.76;95216.91;5047388;28;20061;-76
2023/02/05 05:44:29;;;;;;;3.47;2.53;;;;;;;-3.66;65.92;95228.34;5063584;28;20414;-77
2023/02/05 05:46:54;;;;;;;5.07;2.47;;;;;;;-3.69;66.74;95233.59;5063927;28;20032;-78
2023/02/05 05:49:19;;;;;;;3.40;2.10;;;;;;;-3.76;65.51;95226.88;5065028;28;20032;-80
2023/02/05 05:51:45;;;;;;;4.37;2.43;;;;;;;-3.75;66.04;95239.19;5065516;28;20103;-77
2023/02/05 05:54:10;;;;;;;4.40;2.60;;;;;;;-3.77;66.18;95240.66;5065394;28;20033;-78
2023/02/05 05:56:37;;;;;;;3.77;2.27;;;;;;;-3.76;66.87;95247.59;5064608;28;20039;-79
2023/02/05 05:59:02;;;;;;;5.30;2.53;;;;;;;-3.87;65.68;95230.38;5064633;28;20078;-78
2023/02/05 06:01:28;;;;;;;5.03;2.80;;;;;;;-3.87;66.83;95241.91;5062875;28;20036;-79
2023/02/05 06:03:53;;;;;;;3.83;2.37;;;;;;;-3.85;66.36;95247.69;5047889;28;20020;-76
2023/02/05 06:06:18;;;;;;;5.70;3.00;;;;;;;-3.78;66.35;95252.53;5063323;28;20039;-79
2023/02/05 06:08:44;;;;;;;4.67;3.10;;;;;;;-3.83;66.73;95253.53;5063523;28;20054;-79
2023/02/05 06:11:10;;;;;;;3.90;2.67;;;;;;;-3.70;66.75;95256.22;5063236;28;20031;-77
2023/02/05 06:13:35;;;;;;;6.90;2.77;;;;;;;-3.55;65.47;95255.53;5049598;28;20853;-79
2023/02/05 06:16:01;;;;;;;3.20;2.50;;;;;;;-3.56;65.12;95256.63;5067640;28;20029;-78
2023/02/05 06:18:27;;;;;;;3.33;2.00;;;;;;;-3.81;65.63;95267.41;5065041;28;20032;-78
2023/02/05 06:20:52;;;;;;;4.00;2.80;;;;;;;-3.78;66.04;95274.81;5065152;28;20059;-78
2023/02/05 06:23:18;;;;;;;4.83;2.70;;;;;;;-3.78;66.32;95276.72;5063316;28;20092;-79
2023/02/05 06:25:43;;;;;;;4.53;2.70;;;;;;;-3.83;66.13;95263.50;5069311;28;20029;-78
2023/02/05 06:28:10;;;;;;;6.10;2.73;;;;;;;-3.81;65.47;95277.38;5064430;28;20032;-79
2023/02/05 06:30:36;;;;;;;3.27;2.80;;;;;;;-3.70;66.00;95288.47;5065604;28;20036;-77
2023/02/05 06:33:01;;;;;;;3.53;2.70;;;;;;;-3.68;65.32;95287.00;5047344;28;20024;-79
2023/02/05 06:35:26;;;;;;;4.77;3.07;;;;;;;-3.62;65.05;95287.53;5064249;28;20090;-78
2023/02/05 06:37:53;;;;;;;3.83;2.73;;;;;;;-3.52;64.66;95292.47;5047435;28;20474;-78
2023/02/05 06:40:21;;;;;;;4.57;3.57;;;;;;;-3.49;64.20;95303.34;5045968;28;20437;-77
2023/02/05 06:42:47;;;;;;;4.73;3.10;;;;;;;-3.44;64.23;95304.22;5065565;28;20052;-79
2023/02/05 06:45:12;;;;;;;4.07;2.40;;;;;;;-3.36;63.62;95306.00;5064061;28;20059;-79
2023/02/05 06:47:38;;;;;;;4.53;3.07;;;;;;;-3.33;63.37;95310.69;5064630;28;20066;-78
2023/02/05 06:50:05;;;;;;;3.43;2.67;;;;;;;-3.52;63.27;95322.81;5063318;28;20074;-78
2023/02/05 06:52:30;;;;;;;4.90;2.67;;;;;;;-3.70;63.97;95328.75;5046407;28;20036;-77
2023/02/05 06:54:55;;;;;;;4.70;3.30;;;;;;;-3.82;64.21;95324.16;5063694;28;20029;-77
2023/02/05 06:57:21;;;;;;;4.70;2.73;;;;;;;-3.99;64.96;95324.38;5063782;28;20237;-77
2023/02/05 06:59:46;;;;;;;3.80;2.53;;;;;;;-4.05;64.93;95327.28;5065224;28;20468;-77
2023/02/05 07:02:12;;;;;;;3.10;2.20;;;;;;;-4.03;65.02;95330.41;5063720;28;20039;-77
2023/02/05 07:04:37;;;;;;;4.80;2.60;;;;;;;-4.16;65.51;95326.16;5065074;28;20044;-78
2023/02/05 07:07:03;;;;;;;5.87;2.47;;;;;;;-4.13;65.77;95338.09;5062679;28;20067;-77
2023/02/05 07:09:28;;;;;;;5.17;3.00;;;;;;;-4.14;66.03;95331.97;5063643;28;20416;-79
2023/02/05 07:11:58;;;;;;;6.80;3.67;;;;;;;-3.94;65.77;95337.59;5070035;28;20477;-78
2023/02/05 07:14:23;;;;;;;5.93;3.40;;;;;;;-3.89;65.09;95334.69;5065109;28;20017;-77
2023/02/05 07:16:49;;;;;;;3.90;2.43;;;;;;;-3.90;65.67;95344.66;5047144;28;20040;-78
2023/02/05 07:19:15;;;;;;;8.30;3.30;;;;;;;-3.84;65.02;95347.88;5062622;28;20108;-76
2023/02/05 07:21:40;;;;;;;3.67;2.80;;;;;;;-3.80;64.12;95349.56;5050937;28;20133;-81
2023/02/05 07:24:06;;;;;;;7.00;3.40;;;;;;;-3.80;64.34;95360.31;5068005;28;20072;-78
2023/02/05 07:26:31;;;;;;;5.77;3.60;;;;;;;-3.80;64.30;95360.31;5068770;28;20460;-79
2023/02/05 07:28:56;;;;;;;4.83;3.33;;;;;;;-3.67;64.11;95368.38;5067541;28;20036;-76
2023/02/05 07:31:22;;;;;;;7.37;2.93;;;;;;;-3.55;64.43;95366.50;5068473;28;20089;-79
2023/02/05 07:33:48;;;;;;;5.33;3.33;;;;;;;-3.38;64.32;95378.13;5068672;28;20424;-79
2023/02/05 07:36:15;;;;;;;10.80;4.93;;;;;;;-3.25;63.85;95371.66;5066139;28;20070;-76
2023/02/05 07:38:42;;;;;;;10.87;5.30;;;;;;;-3.17;63.53;95375.31;5066733;28;20483;-75
2023/02/05 07:41:09;;;;;;;5.27;3.13;;;;;;;-3.10;63.05;95365.56;5065617;28;20111;-76
2023/02/05 07:43:35;;;;;;;6.00;3.10;;;;;;;-3.05;63.59;95367.25;5050611;28;20028;-76
2023/02/05 07:46:05;;;;;;;5.70;3.10;;;;;;;-2.97;63.43;95377.88;5068837;28;20039;-77
2023/02/05 07:48:31;;;;;;;5.70;3.80;;;;;;;-2.84;62.78;95377.84;5067763;28;20024;-76
2023/02/05 07:50:56;;;;;;;5.43;3.27;;;;;;;-2.88;63.23;95379.66;5066106;28;20162;-75
2023/02/05 07:53:22;;;;;;;6.70;3.00;;;;;;;-2.91;63.24;95378.44;5065494;28;20126;-76
2023/02/05 07:55:47;;;;;;;5.90;2.90;;;;;;;-2.85;63.14;95382.44;5066602;28;20028;-76
2023/02/05 07:58:13;;;;;;;6.13;3.37;;;;;;;-2.81;63.43;95390.63;5064828;28;20064;-81
2023/02/05 08:00:38;;;;;;;7.27;3.63;;;;;;;-2.74;63.15;95398.91;5066335;28;20544;-75
2023/02/05 08:03:04;;;;;;;5.57;3.50;;;;;;;-2.62;63.56;95403.47;5066669;28;20105;-77
2023/02/05 08:05:29;;;;;;;13.43;6.30;;;;;;;-2.55;62.96;95401.78;5067648;28;20567;-76
2023/02/05 08:07:55;;;;;;;8.73;3.70;;;;;;;-2.53;62.18;95394.13;5071777;28;20020;-77
2023/02/05 08:10:23;;;;;;;8.93;3.83;;;;;;;-2.53;62.67;95399.50;5069459;28;20034;-77
2023/02/05 08:12:49;;;;;;;13.37;9.00;;;;;;;-2.60;63.17;95393.16;5069854;28;20451;-77
2023/02/05 08:15:15;;;;;;;5.60;3.70;;;;;;;-2.57;63.18;95397.88;5065429;28;20100;-76
2023/02/05 08:17:40;;;;;;;5.87;4.60;;;;;;;-2.46;64.06;95407.03;5067785;28;20027;-77
2023/02/05 08:20:06;;;;;;;7.57;3.93;;;;;;;-2.34;62.33;95411.59;5066097;28;20025;-76
2023/02/05 08:22:38;;;;;;;7.43;4.13;;;;;;;-2.28;62.07;95411.00;5065128;28;20045;-78
2023/02/05 08:25:05;;;;;;;9.48;4.53;;;;;;;-2.12;60.81;95416.44;5064467;28;20422;-76
2023/02/05 08:27:32;;;;;;;11.10;6.57;;;;;;;-2.00;60.00;95410.19;5048346;28;20031;-75
2023/02/05 08:29:57;;;;;;;13.70;6.05;;;;;;;-1.89;58.98;95416.66;5065446;28;20051;-78
2023/02/05 08:32:23;;;;;;;12.23;5.18;;;;;;;-1.85;57.80;95412.13;5065724;28;20505;-78
2023/02/05 08:34:48;;;;;;;9.57;4.43;;;;;;;-1.66;58.01;95422.25;5067146;28;20434;-77
2023/02/05 08:37:13;;;;;;;8.68;4.28;;;;;;;-1.41;55.67;95418.25;5065613;28;20031;-79
2023/02/05 08:39:44;;;;;;;7.03;3.85;;;;;;;-1.23;54.94;95415.97;5069209;28;20051;-78
2023/02/05 08:42:10;;;;;;;5.25;3.08;;;;;;;-1.07;53.17;95424.06;5067667;28;20044;-77
2023/02/05 08:44:36;;;;;;;5.45;2.60;;;;;;;-0.88;53.43;95428.75;5065880;28;20041;-78
2023/02/05 08:47:01;;;;;;;5.63;3.15;;;;;;;-0.65;51.49;95424.25;5066194;28;20025;-78
2023/02/05 08:49:26;;;;;;;7.32;3.50;;;;;;;-0.48;51.14;95423.06;5065298;28;20092;-77
2023/02/05 08:51:52;;;;;;;7.20;3.13;;;;;;;-0.32;50.40;95425.72;5066481;28;20027;-78
2023/02/05 08:54:17;;;;;;;4.47;2.90;;;;;;;-0.10;49.48;95424.22;5065223;28;20040;-78
2023/02/05 08:56:44;;;;;;;8.35;3.75;;;;;;;0.13;48.50;95419.66;5066223;28;20029;-79
2023/02/05 08:59:10;;;;;;;8.48;4.25;;;;;;;0.28;47.54;95431.50;5047192;28;20043;-78
2023/02/05 09:01:37;;;;;;;5.57;2.97;;;;;;;0.33;46.24;95433.13;5064537;28;20056;-78
2023/02/05 09:04:03;;;;;;;4.85;2.85;;;;;;;0.41;46.67;95434.84;5069405;28;20037;-78
2023/02/05 09:06:28;;;;;;;4.30;2.65;;;;;;;0.51;45.78;95434.22;5048091;28;20032;-78
2023/02/05 09:08:54;;;;;;;4.20;2.00;;;;;;;0.51;45.71;95436.94;5065084;28;20036;-77
2023/02/05 09:11:22;;;;;;;5.55;3.08;;;;;;;0.62;45.48;95443.31;5065846;28;20021;-78
2023/02/05 09:13:47;;;;;;;5.90;3.38;;;;;;;0.67;45.71;95453.84;5066843;28;20028;-78
2023/02/05 09:16:13;;;;;;;4.13;2.90;;;;;;;0.69;46.11;95446.16;5046939;28;20515;-79
2023/02/05 09:18:38;;;;;;;7.78;4.28;;;;;;;0.64;45.70;95453.78;5055411;28;20031;-81
2023/02/05 09:21:08;;;;;;;5.47;2.88;;;;;;;0.72;45.30;95455.47;5064149;28;20420;-76
2023/02/05 09:23:33;;;;;;;4.65;3.05;;;;;;;0.60;45.13;95448.31;5063981;28;20032;-77
2023/02/05 09:25:59;;;;;;;4.13;2.97;;;;;;;0.64;44.47;95453.78;5047165;28;20101;-76
2023/02/05 09:28:24;;;;;;;6.50;3.28;;;;;;;0.62;44.82;95451.44;5064115;28;20475;-78
2023/02/05 09:30:50;;;;;;;5.82;3.10;;;;;;;0.58;44.53;95463.34;5063718;28;20096;-77
2023/02/05 09:33:16;;;;;;;5.63;2.58;;;;;;;0.61;44.68;95463.41;5064563;28;20029;-76
2023/02/05 09:35:41;;;;;;;5.15;2.70;;;;;;;0.73;44.84;95462.44;5065638;28;20487;-77
2023/02/05 09:38:06;;;;;;;4.53;3.00;;;;;;;0.61;44.27;95466.09;5064462;28;20446;-77
2023/02/05 09:40:40;;;;;;;6.07;2.50;;;;;;;0.44;44.45;95471.97;5065019;28;20533;-83
2023/02/05 09:43:23;;;;;;;4.10;2.63;;;;;;;0.52;44.76;95470.97;5064987;28;20818;-83
2023/02/05 09:45:59;;;;;;;4.50;3.25;;;;;;;0.56;44.29;95463.69;5066574;28;20118;-85
2023/02/05 09:48:31;;;;;;;8.02;4.03;;;;;;;0.51;44.84;95461.28;5048844;28;20037;-83
2023/02/05 09:50:57;;;;;;;8.00;4.20;;;;;;;0.46;44.22;95466.97;5063993;28;20465;-83
2023/02/05 09:53:22;;;;;;;6.00;3.45;;;;;;;0.38;44.78;95466.06;5048707;28;20039;-82
2023/02/05 09:55:48;;;;;;;9.27;3.60;;;;;;;0.31;44.87;95467.88;5069223;28;20033;-80
2023/02/05 09:58:17;;;;;;;5.70;3.20;;;;;;;0.23;45.11;95454.22;5068142;28;20016;-82
2023/02/05 10:00:47;;;;;;;7.47;3.08;;;;;;;0.05;45.28;95466.59;5073711;28;20112;-81
2023/02/05 10:03:26;;;;;;;5.80;3.15;;;;;;;0.01;46.07;95457.66;5064380;28;20029;-82
2023/02/05 10:06:20;;;;;;;4.03;2.78;;;;;;;-0.05;45.39;95472.59;5065279;28;20505;-83
2023/02/05 10:08:54;;;;;;;5.10;3.22;;;;;;;-0.03;45.08;95465.69;5065582;28;20478;-83
2023/02/05 10:11:33;;;;;;;4.95;3.25;;;;;;;-0.02;45.46;95472.66;5064181;28;20533;-81
2023/02/05 10:14:27;;;;;;;5.43;2.88;;;;;;;0.06;45.25;95473.59;5064206;28;20471;-78
2023/02/05 10:16:52;;;;;;;;;;;;;;;0.08;44.20;95475.94;5065640;28;20127;-78
2023/02/05 10:19:36;;;;;;;5.30;2.42;;;;;;;0.07;43.69;95468.97;5065267;28;20133;-79
2023/02/05 10:22:26;;;;;;;5.72;3.08;;;;;;;0.07;44.12;95474.38;5063577;28;20044;-79
2023/02/05 10:25:13;;;;;;;6.60;3.75;;;;;;;0.07;44.60;95483.25;5063193;28;20036;-80
2023/02/05 10:27:55;;;;;;;7.03;3.10;;;;;;;0.05;44.34;95466.59;5065142;28;20056;-80
2023/02/05 10:30:50;;;;;;;4.47;2.53;;;;;;;0.12;43.72;95472.16;5062948;28;20059;-78
2023/02/05 10:33:18;;;;;;;3.83;2.03;;;;;;;0.13;42.97;95476.44;5046316;28;20043;-79
2023/02/05 10:35:59;;;;;;;3.70;2.28;;;;;;;0.16;42.61;95472.22;5063551;28;20028;-81
2023/02/05 10:38:27;;;;;;;3.80;2.45;;;;;;;0.13;41.63;95473.72;5063659;28;20028;-77
2023/02/05 10:40:56;;;;;;;5.10;2.00;;;;;;;0.04;41.64;95470.44;5063685;28;20016;-80
2023/02/05 10:43:23;;;;;;;5.10;2.45;;;;;;;0.06;41.91;95460.06;5062835;28;20050;-79
2023/02/05 10:45:50;;;;;;;5.03;3.03;;;;;;;0.04;42.66;95458.84;5063142;28;20052;-79
2023/02/05 10:48:37;;;;;;;4.68;3.05;;;;;;;0.09;42.46;95470.16;5063464;28;20124;-80
2023/02/05 10:51:12;;;;;;;7.40;3.20;;;;;;;0.13;42.12;95465.63;5062756;28;20032;-79
2023/02/05 10:53:38;;;;;;;6.97;2.97;;;;;;;0.15;42.13;95457.91;5064212;28;20028;-79
2023/02/05 10:56:04;;;;;;;3.95;2.40;;;;;;;0.09;42.20;95467.47;5069454;28;20055;-77
2023/02/05 10:58:53;;;;;;;3.85;2.03;;;;;;;0.09;42.11;95462.06;5067662;28;20130;-77
2023/02/05 11:01:40;;;;;;;5.15;2.60;;;;;;;0.19;42.63;95464.19;5069300;28;20085;-76
2023/02/05 11:04:17;;;;;;;4.47;2.70;;;;;;;0.22;43.54;95470.78;5067852;28;20075;-80
2023/02/05 11:06:50;;;;;;;5.25;2.42;;;;;;;0.29;43.25;95480.94;5071490;28;20033;-79
2023/02/05 11:09:28;;;;;;;3.10;2.53;;;;;;;0.42;43.20;95466.94;5070096;28;20126;-81
2023/02/05 11:11:55;;;;;;;3.53;2.65;;;;;;;0.41;44.03;95470.78;5071866;28;20508;-81
2023/02/05 11:14:27;;;;;;;4.18;2.42;;;;;;;0.55;43.38;95472.19;5067914;28;20036;-77
2023/02/05 11:16:52;;;;;;;6.53;2.97;;;;;;;0.64;43.29;95487.03;5067734;28;20543;-81
2023/02/05 11:19:27;;;;;;;4.82;2.65;;;;;;;0.82;43.48;95486.56;5069362;28;20099;-82
2023/02/05 11:21:57;;;;;;;5.15;3.15;;;;;;;0.91;43.18;95479.75;5066672;28;20049;-80
2023/02/05 11:24:24;;;;;;;5.55;2.50;;;;;;;1.04;43.63;95477.66;5066332;28;20036;-76
2023/02/05 11:27:28;;;;;;;6.00;2.83;;;;;;;1.32;42.96;95480.06;5049560;28;20048;-77
2023/02/05 11:29:55;;;;;;;5.13;3.50;;;;;;;1.60;42.87;95471.53;5067346;28;20068;-76
2023/02/05 11:32:37;;;;;;;4.05;2.15;;;;;;;1.96;42.18;95472.03;5066142;28;20036;-78
2023/02/05 11:35:08;;;;;;;3.17;1.95;;;;;;;2.29;40.69;95474.75;5067069;28;20029;-84
2023/02/05 11:37:37;;;;;;;2.92;2.00;;;;;;;2.57;40.58;95473.50;5050179;28;20062;-82
2023/02/05 11:40:03;;;;;;;6.13;3.22;;;;;;;2.93;40.55;95469.22;5069441;28;20039;-84
2023/02/05 11:42:29;;;;;;;7.40;3.65;;;;;;;3.06;40.17;95469.69;5078489;28;20037;-83
2023/02/05 11:44:57;;;;;;;4.57;3.03;;;;;;;3.29;39.83;95464.84;5070693;28;20499;-85
2023/02/05 11:47:27;;;;;;;5.10;2.38;;;;;;;3.51;38.86;95470.44;5067860;28;20039;-84